Time;durP1;ratioP1;P1;durP2;ratioP2;P2;SDS_P1;SDS_P2;PMS_P1;PMS_P2;Temp;Humidity;BMP_temperature;BMP_pressure;BME280_temperature;BME280_humidity;BME280_pressure;Samples;Min_cycle;Max_cycle;Signal;HPM_P1;HPM_P2
2020/12/07 00:02:22;;;;;;;11.60;7.70;;;;;;;;;;5015860;28;20355;-78
2020/12/07 00:04:48;;;;;;;10.17;6.30;;;;;;;;;;5008041;28;20273;-79
2020/12/07 00:07:14;;;;;;;10.10;6.40;;;;;;;;;;5005208;28;20320;-78
2020/12/07 00:09:41;;;;;;;10.13;6.07;;;;;;;;;;5018736;28;20346;-78
2020/12/07 00:12:07;;;;;;;10.23;6.77;;;;;;;;;;5004051;28;20791;-77
2020/12/07 00:14:33;;;;;;;10.37;6.63;;;;;;;;;;5004615;28;20770;-77
2020/12/07 00:16:59;;;;;;;9.93;6.67;;;;;;;;;;5007777;28;20817;-77
2020/12/07 00:19:25;;;;;;;12.83;7.23;;;;;;;;;;5003464;28;20284;-77
2020/12/07 00:21:51;;;;;;;11.07;6.50;;;;;;;;;;5008463;28;20276;-78
2020/12/07 00:24:18;;;;;;;12.87;7.40;;;;;;;;;;5010437;28;20640;-77
2020/12/07 00:26:44;;;;;;;11.73;7.10;;;;;;;;;;5004783;28;20303;-77
2020/12/07 00:29:11;;;;;;;11.07;7.60;;;;;;;;;;5002048;28;20367;-77
2020/12/07 00:31:37;;;;;;;10.47;6.87;;;;;;;;;;5004036;28;20307;-77
2020/12/07 00:34:03;;;;;;;9.97;6.90;;;;;;;;;;5007583;28;20332;-78
2020/12/07 00:36:29;;;;;;;10.90;7.37;;;;;;;;;;5004246;28;20271;-78
2020/12/07 00:38:55;;;;;;;11.87;7.93;;;;;;;;;;4997673;28;20363;-78
2020/12/07 00:41:22;;;;;;;12.60;8.07;;;;;;;;;;4999688;28;20278;-77
2020/12/07 00:43:48;;;;;;;13.43;8.33;;;;;;;;;;5011507;28;20269;-77
2020/12/07 00:46:16;;;;;;;13.57;8.53;;;;;;;;;;5010761;28;20348;-77
2020/12/07 00:48:43;;;;;;;12.87;8.60;;;;;;;;;;5007227;28;20407;-77
2020/12/07 00:51:09;;;;;;;12.17;8.07;;;;;;;;;;5005313;28;20296;-78
2020/12/07 00:53:35;;;;;;;14.20;9.57;;;;;;;;;;5006494;28;20272;-77
2020/12/07 00:56:01;;;;;;;12.63;7.87;;;;;;;;;;5008339;28;20285;-77
2020/12/07 00:58:28;;;;;;;13.87;9.23;;;;;;;;;;5004362;28;20289;-77
2020/12/07 01:00:54;;;;;;;16.27;10.97;;;;;;;;;;5010757;28;20273;-78
2020/12/07 01:03:20;;;;;;;16.17;9.67;;;;;;;;;;5010522;28;20281;-78
2020/12/07 01:05:46;;;;;;;14.97;9.70;;;;;;;;;;5004877;28;20280;-78
2020/12/07 01:08:12;;;;;;;12.80;8.40;;;;;;;;;;5026191;28;20410;-77
2020/12/07 01:10:38;;;;;;;14.37;9.33;;;;;;;;;;5011347;28;20287;-78
2020/12/07 01:13:04;;;;;;;16.47;10.07;;;;;;;;;;5019053;28;20265;-77
2020/12/07 01:15:30;;;;;;;15.00;9.97;;;;;;;;;;5024649;28;20776;-77
2020/12/07 01:17:56;;;;;;;15.43;9.97;;;;;;;;;;5015199;28;20380;-77
2020/12/07 01:20:23;;;;;;;16.20;10.73;;;;;;;;;;5021334;28;20273;-77
2020/12/07 01:22:49;;;;;;;17.30;11.73;;;;;;;;;;5016276;28;20273;-77
2020/12/07 01:25:15;;;;;;;17.57;11.80;;;;;;;;;;5024293;28;20269;-78
2020/12/07 01:27:41;;;;;;;17.40;11.27;;;;;;;;;;5020951;28;20268;-78
2020/12/07 01:30:07;;;;;;;19.17;11.60;;;;;;;;;;5019559;28;20280;-78
2020/12/07 01:32:33;;;;;;;19.70;11.73;;;;;;;;;;5021453;28;20277;-77
2020/12/07 01:34:59;;;;;;;20.53;12.23;;;;;;;;;;5024670;28;20272;-77
2020/12/07 01:37:25;;;;;;;20.10;12.23;;;;;;;;;;5022342;28;20280;-78
2020/12/07 01:39:51;;;;;;;19.63;10.73;;;;;;;;;;5017670;28;20285;-77
2020/12/07 01:42:17;;;;;;;18.33;11.87;;;;;;;;;;5022429;28;20671;-78
2020/12/07 01:44:43;;;;;;;19.00;11.03;;;;;;;;;;5023497;28;20256;-78
2020/12/07 01:47:30;;;;;;;18.77;11.23;;;;;;;;;;5018808;28;20277;-77
2020/12/07 01:49:57;;;;;;;18.30;10.83;;;;;;;;;;5003992;28;20265;-78
2020/12/07 01:52:23;;;;;;;17.77;11.43;;;;;;;;;;5012650;28;20272;-78
2020/12/07 01:54:49;;;;;;;15.13;10.27;;;;;;;;;;5010345;28;20359;-77
2020/12/07 01:57:16;;;;;;;15.37;10.90;;;;;;;;;;5014215;28;20280;-78
2020/12/07 01:59:42;;;;;;;17.47;11.80;;;;;;;;;;5016672;28;20346;-77
2020/12/07 02:02:08;;;;;;;19.90;12.13;;;;;;;;;;5016605;28;20261;-78
2020/12/07 02:04:34;;;;;;;16.50;10.40;;;;;;;;;;5006818;28;20365;-78
2020/12/07 02:07:00;;;;;;;18.60;11.00;;;;;;;;;;5019919;28;20272;-78
2020/12/07 02:09:27;;;;;;;14.17;8.73;;;;;;;;;;5010738;28;20319;-78
2020/12/07 02:11:53;;;;;;;14.07;9.67;;;;;;;;;;5012737;28;20257;-78
2020/12/07 02:14:19;;;;;;;10.50;6.57;;;;;;;;;;5012854;28;20336;-78
2020/12/07 02:16:46;;;;;;;13.87;8.23;;;;;;;;;;5010308;28;20277;-78
2020/12/07 02:19:12;;;;;;;13.53;8.97;;;;;;;;;;5010762;28;20311;-78
2020/12/07 02:21:38;;;;;;;13.30;8.57;;;;;;;;;;5010918;28;20311;-78
2020/12/07 02:24:04;;;;;;;13.33;8.60;;;;;;;;;;5013022;28;20275;-78
2020/12/07 02:26:30;;;;;;;13.50;8.37;;;;;;;;;;5011044;28;20261;-77
2020/12/07 02:28:56;;;;;;;13.10;8.93;;;;;;;;;;5010490;28;21038;-78
2020/12/07 02:31:22;;;;;;;12.30;7.97;;;;;;;;;;5005078;28;20344;-79
2020/12/07 02:33:48;;;;;;;13.90;9.20;;;;;;;;;;5012043;28;20273;-79
2020/12/07 02:36:15;;;;;;;12.60;8.70;;;;;;;;;;5007593;28;20785;-78
2020/12/07 02:38:41;;;;;;;13.57;8.77;;;;;;;;;;5011145;28;20311;-78
2020/12/07 02:41:07;;;;;;;13.60;8.50;;;;;;;;;;5011136;28;20301;-78
2020/12/07 02:43:33;;;;;;;15.40;8.87;;;;;;;;;;5010872;28;20265;-79
2020/12/07 02:45:59;;;;;;;13.87;8.40;;;;;;;;;;5011104;28;20263;-79
2020/12/07 02:48:25;;;;;;;12.93;8.33;;;;;;;;;;5007701;28;20300;-78
2020/12/07 02:50:51;;;;;;;11.33;7.03;;;;;;;;;;5004739;28;20269;-79
2020/12/07 02:53:17;;;;;;;14.70;7.60;;;;;;;;;;5013605;28;20335;-79
2020/12/07 02:55:43;;;;;;;11.70;6.93;;;;;;;;;;5012585;28;20281;-78
2020/12/07 02:58:09;;;;;;;11.60;6.37;;;;;;;;;;5010426;28;20300;-79
2020/12/07 03:00:36;;;;;;;12.67;7.60;;;;;;;;;;5012169;28;20344;-79
2020/12/07 03:03:02;;;;;;;12.23;7.00;;;;;;;;;;5015164;28;20619;-79
2020/12/07 03:05:29;;;;;;;11.13;7.03;;;;;;;;;;5012323;28;20277;-79
2020/12/07 03:07:55;;;;;;;8.07;4.43;;;;;;;;;;5012826;28;20273;-79
2020/12/07 03:10:21;;;;;;;9.20;5.67;;;;;;;;;;5015415;28;20311;-78
2020/12/07 03:12:47;;;;;;;6.80;4.13;;;;;;;;;;5013524;28;20276;-79
2020/12/07 03:15:14;;;;;;;9.83;5.30;;;;;;;;;;5013551;28;20265;-79
2020/12/07 03:17:40;;;;;;;10.03;5.13;;;;;;;;;;5014184;28;20315;-79
2020/12/07 03:20:06;;;;;;;8.03;5.10;;;;;;;;;;5014590;28;20256;-79
2020/12/07 03:22:32;;;;;;;8.03;5.07;;;;;;;;;;5014258;28;20356;-79
2020/12/07 03:25:00;;;;;;;8.83;5.20;;;;;;;;;;5010800;28;20257;-77
2020/12/07 03:27:26;;;;;;;8.63;5.00;;;;;;;;;;5012472;28;20273;-79
2020/12/07 03:29:52;;;;;;;8.67;5.27;;;;;;;;;;5009235;28;20344;-79
2020/12/07 03:32:18;;;;;;;8.33;5.10;;;;;;;;;;5012548;28;20272;-79
2020/12/07 03:34:44;;;;;;;9.40;5.50;;;;;;;;;;5013353;28;20663;-79
2020/12/07 03:37:10;;;;;;;8.70;5.03;;;;;;;;;;5028590;28;20363;-79
2020/12/07 03:39:36;;;;;;;8.90;5.57;;;;;;;;;;5014473;28;20314;-78
2020/12/07 03:42:02;;;;;;;9.37;5.43;;;;;;;;;;5012162;28;20273;-79
2020/12/07 03:44:28;;;;;;;10.10;5.10;;;;;;;;;;5013531;28;20624;-78
2020/12/07 03:46:54;;;;;;;9.07;4.73;;;;;;;;;;5012170;28;20307;-78
2020/12/07 03:49:22;;;;;;;7.73;4.50;;;;;;;;;;5012346;28;20292;-79
2020/12/07 03:51:48;;;;;;;9.17;4.90;;;;;;;;;;5012551;28;20733;-78
2020/12/07 03:54:14;;;;;;;8.47;4.63;;;;;;;;;;5012687;28;20300;-79
2020/12/07 03:56:42;;;;;;;8.10;4.40;;;;;;;;;;5012270;28;20276;-79
2020/12/07 03:59:08;;;;;;;7.83;4.77;;;;;;;;;;5021490;28;20283;-79
2020/12/07 04:01:36;;;;;;;10.00;5.33;;;;;;;;;;5014497;28;20755;-79
2020/12/07 04:04:05;;;;;;;9.73;5.00;;;;;;;;;;5011064;28;20288;-79
2020/12/07 04:06:35;;;;;;;9.40;5.10;;;;;;;;;;5005463;28;20353;-77
2020/12/07 04:09:01;;;;;;;8.77;5.10;;;;;;;;;;5010951;28;20265;-78
2020/12/07 04:11:29;;;;;;;9.33;5.00;;;;;;;;;;5010029;28;20269;-78
2020/12/07 04:13:55;;;;;;;7.90;4.60;;;;;;;;;;5010528;28;20269;-77
2020/12/07 04:16:25;;;;;;;9.43;5.37;;;;;;;;;;5010810;28;20350;-78
2020/12/07 04:18:51;;;;;;;9.37;5.17;;;;;;;;;;5009759;28;20285;-78
2020/12/07 04:21:18;;;;;;;10.23;6.00;;;;;;;;;;5029534;28;20261;-78
2020/12/07 04:23:44;;;;;;;8.87;5.13;;;;;;;;;;5011448;28;20301;-77
2020/12/07 04:26:10;;;;;;;8.27;4.60;;;;;;;;;;5012045;28;20257;-78
2020/12/07 04:28:36;;;;;;;9.20;5.10;;;;;;;;;;5014321;28;20299;-78
2020/12/07 04:31:03;;;;;;;7.57;4.40;;;;;;;;;;5013827;28;20268;-78
2020/12/07 04:33:29;;;;;;;7.20;4.50;;;;;;;;;;5013259;28;20790;-77
2020/12/07 04:35:55;;;;;;;7.80;4.67;;;;;;;;;;5013747;28;20276;-78
2020/12/07 04:38:21;;;;;;;9.37;4.63;;;;;;;;;;5014265;28;20297;-78
2020/12/07 04:40:50;;;;;;;6.97;3.87;;;;;;;;;;5011418;28;20747;-77
2020/12/07 04:43:17;;;;;;;7.87;4.50;;;;;;;;;;5012097;28;20308;-78
2020/12/07 04:45:43;;;;;;;6.93;4.03;;;;;;;;;;4998732;28;20261;-77
2020/12/07 04:48:11;;;;;;;7.50;4.63;;;;;;;;;;5010812;28;20289;-77
2020/12/07 04:50:37;;;;;;;8.43;3.90;;;;;;;;;;5003120;28;20759;-77
2020/12/07 04:53:03;;;;;;;6.80;4.10;;;;;;;;;;5012061;28;20755;-77
2020/12/07 04:55:29;;;;;;;6.80;4.00;;;;;;;;;;5010987;28;20631;-77
2020/12/07 04:57:56;;;;;;;7.23;4.13;;;;;;;;;;5007506;28;20358;-77
2020/12/07 05:00:24;;;;;;;7.70;3.77;;;;;;;;;;5006671;28;20276;-77
2020/12/07 05:02:51;;;;;;;6.67;3.67;;;;;;;;;;5012301;28;20341;-78
2020/12/07 05:05:18;;;;;;;6.73;3.60;;;;;;;;;;5009936;28;20308;-78
2020/12/07 05:07:47;;;;;;;6.23;3.70;;;;;;;;;;5012491;28;20276;-78
2020/12/07 05:10:16;;;;;;;7.43;3.93;;;;;;;;;;5007470;28;20295;-77
2020/12/07 05:12:50;;;;;;;7.53;4.63;;;;;;;;;;5023259;28;20342;-76
2020/12/07 05:15:17;;;;;;;8.17;4.43;;;;;;;;;;5010847;28;20363;-78
2020/12/07 05:17:45;;;;;;;7.77;4.77;;;;;;;;;;5008627;28;20268;-76
2020/12/07 05:20:11;;;;;;;9.50;4.77;;;;;;;;;;5009298;28;20265;-77
2020/12/07 05:22:42;;;;;;;10.93;4.93;;;;;;;;;;5010347;28;20276;-76
2020/12/07 05:25:08;;;;;;;8.03;4.57;;;;;;;;;;5007935;28;20264;-77
2020/12/07 05:27:39;;;;;;;10.20;5.47;;;;;;;;;;5001972;28;20284;-77
2020/12/07 05:30:09;;;;;;;9.53;5.17;;;;;;;;;;5008481;28;20277;-77
2020/12/07 05:32:37;;;;;;;11.17;6.17;;;;;;;;;;5026465;28;20269;-77
2020/12/07 05:35:04;;;;;;;10.33;7.10;;;;;;;;;;5010866;28;20713;-77
2020/12/07 05:37:33;;;;;;;9.33;5.57;;;;;;;;;;5016679;28;20285;-76
2020/12/07 05:40:07;;;;;;;10.67;6.07;;;;;;;;;;5025416;28;20291;-76
2020/12/07 05:42:33;;;;;;;9.40;5.65;;;;;;;;;;5028016;28;20265;-75
2020/12/07 05:45:00;;;;;;;12.70;7.53;;;;;;;;;;5031587;28;20152;-76
2020/12/07 05:47:27;;;;;;;9.67;5.40;;;;;;;;;;5029352;28;20268;-75
2020/12/07 05:49:54;;;;;;;12.37;6.87;;;;;;;;;;5031488;28;20356;-77
2020/12/07 05:52:41;;;;;;;13.00;7.80;;;;;;;;;;5025561;28;20284;-74
2020/12/07 05:55:08;;;;;;;13.03;6.93;;;;;;;;;;5028700;28;20608;-75
2020/12/07 05:57:40;;;;;;;13.97;7.30;;;;;;;;;;5025941;28;20340;-76
2020/12/07 06:00:06;;;;;;;14.30;8.17;;;;;;;;;;5028572;28;20265;-75
2020/12/07 06:02:34;;;;;;;14.87;7.90;;;;;;;;;;5025018;28;20272;-75
2020/12/07 06:05:02;;;;;;;27.47;16.80;;;;;;;;;;5029753;28;20281;-75
2020/12/07 06:07:30;;;;;;;23.37;13.43;;;;;;;;;;5023828;28;20289;-75
2020/12/07 06:09:57;;;;;;;19.53;10.03;;;;;;;;;;5025213;28;20388;-75
2020/12/07 06:12:28;;;;;;;19.73;10.10;;;;;;;;;;5009862;28;20941;-76
2020/12/07 06:14:54;;;;;;;19.27;10.93;;;;;;;;;;5026526;28;20304;-74
2020/12/07 06:17:24;;;;;;;23.40;12.57;;;;;;;;;;5028250;28;20308;-75
2020/12/07 06:19:51;;;;;;;21.63;12.10;;;;;;;;;;5030342;28;20310;-73
2020/12/07 06:22:20;;;;;;;19.70;11.37;;;;;;;;;;5028829;28;20269;-74
2020/12/07 06:24:46;;;;;;;20.20;11.80;;;;;;;;;;5024389;28;20313;-75
2020/12/07 06:27:13;;;;;;;20.43;11.03;;;;;;;;;;5029578;28;20454;-75
2020/12/07 06:29:55;;;;;;;22.80;12.13;;;;;;;;;;5045493;28;20299;-75
2020/12/07 06:32:21;;;;;;;19.60;10.00;;;;;;;;;;5030599;28;20320;-76
2020/12/07 06:34:56;;;;;;;18.83;10.23;;;;;;;;;;5026607;28;20315;-76
2020/12/07 06:37:24;;;;;;;25.23;12.13;;;;;;;;;;5030854;28;20287;-76
2020/12/07 06:39:50;;;;;;;21.73;13.00;;;;;;;;;;5033016;28;20297;-76
2020/12/07 06:42:16;;;;;;;21.47;11.43;;;;;;;;;;5031543;28;20314;-76
2020/12/07 06:44:43;;;;;;;19.97;12.30;;;;;;;;;;5029122;28;20292;-76
2020/12/07 06:47:26;;;;;;;27.37;13.83;;;;;;;;;;5018467;28;20285;-78
2020/12/07 06:49:54;;;;;;;25.80;11.17;;;;;;;;;;5012387;28;20305;-77
2020/12/07 06:52:26;;;;;;;28.57;14.43;;;;;;;;;;5028326;28;20292;-76
2020/12/07 06:55:08;;;;;;;27.27;14.90;;;;;;;;;;5026301;28;20296;-76
2020/12/07 06:57:37;;;;;;;23.47;13.80;;;;;;;;;;5028712;28;20312;-76
2020/12/07 07:00:03;;;;;;;22.07;12.40;;;;;;;;;;5030231;28;20291;-75
2020/12/07 07:02:30;;;;;;;20.77;12.53;;;;;;;;;;5029411;28;20277;-75
2020/12/07 07:04:57;;;;;;;19.93;11.80;;;;;;;;;;5030709;28;20284;-76
2020/12/07 07:07:24;;;;;;;23.10;11.63;;;;;;;;;;5027847;28;20276;-76
2020/12/07 07:09:51;;;;;;;21.80;11.00;;;;;;;;;;5028624;28;20341;-76
2020/12/07 07:12:17;;;;;;;16.50;10.10;;;;;;;;;;5023275;28;20269;-75
2020/12/07 07:14:43;;;;;;;14.57;8.80;;;;;;;;;;5023375;28;20269;-76
2020/12/07 07:17:10;;;;;;;17.80;9.50;;;;;;;;;;5026322;28;20588;-75
2020/12/07 07:19:36;;;;;;;20.13;13.00;;;;;;;;;;5030207;28;20569;-75
2020/12/07 07:22:02;;;;;;;21.33;13.63;;;;;;;;;;5030850;28;20264;-76
2020/12/07 07:24:34;;;;;;;18.27;10.57;;;;;;;;;;5029544;28;20279;-77
2020/12/07 07:27:55;;;;;;;16.23;10.20;;;;;;;;;;5042838;28;20347;-76
2020/12/07 07:29:47;;;;;;;17.67;8.67;;;;;;;;;;5024971;28;20281;-76
2020/12/07 07:32:13;;;;;;;16.37;9.50;;;;;;;;;;5028455;28;20259;-77
2020/12/07 07:34:47;;;;;;;11.90;8.07;;;;;;;;;;5027812;28;20268;-76
2020/12/07 07:37:14;;;;;;;14.77;9.77;;;;;;;;;;5025275;28;20552;-76
2020/12/07 07:39:40;;;;;;;12.63;8.23;;;;;;;;;;5019721;28;20288;-77
2020/12/07 07:42:07;;;;;;;13.33;8.00;;;;;;;;;;5029619;28;20288;-76
2020/12/07 07:44:34;;;;;;;13.03;8.20;;;;;;;;;;5030807;28;20361;-77
2020/12/07 07:47:04;;;;;;;15.83;9.23;;;;;;;;;;5028361;28;20269;-77
2020/12/07 07:49:49;;;;;;;15.73;11.00;;;;;;;;;;5028873;28;20293;-76
2020/12/07 08:17:54;;;;;;;6.73;3.80;;;;;;;;;;5006648;28;20117;-76
2020/12/07 08:20:22;;;;;;;5.50;2.97;;;;;;;;;;5001831;28;20048;-77
2020/12/07 08:22:55;;;;;;;8.03;3.80;;;;;;;;;;5006890;28;20028;-77
2020/12/07 08:25:21;;;;;;;6.00;3.20;;;;;;;;;;5006980;28;20041;-77
2020/12/07 08:27:47;;;;;;;7.37;3.90;;;;;;;;;;5006028;28;20026;-77
2020/12/07 08:30:15;;;;;;;7.93;3.80;;;;;;;;;;5005346;28;20121;-76
2020/12/07 08:32:41;;;;;;;6.90;3.97;;;;;;;;;;5007272;28;20030;-76
2020/12/07 08:35:13;;;;;;;6.40;3.60;;;;;;;;;;5007668;28;20030;-76
2020/12/07 08:37:43;;;;;;;6.60;2.87;;;;;;;;;;5007986;28;20030;-77
2020/12/07 08:40:09;;;;;;;6.10;3.57;;;;;;;;;;5018331;28;20280;-76
2020/12/07 08:42:35;;;;;;;6.43;3.33;;;;;;;;;;5008544;28;20653;-77
2020/12/07 08:45:01;;;;;;;7.33;3.80;;;;;;;;;;5008347;28;20030;-76
2020/12/07 08:47:27;;;;;;;7.37;3.70;;;;;;;;;;5008737;28;20069;-76
2020/12/07 08:49:54;;;;;;;7.33;3.73;;;;;;;;;;5000424;28;20045;-75
2020/12/07 08:52:20;;;;;;;9.00;4.60;;;;;;;;;;5002754;28;20044;-76
2020/12/07 08:54:46;;;;;;;8.07;4.27;;;;;;;;;;5008027;28;20030;-76
2020/12/07 08:57:12;;;;;;;7.87;4.33;;;;;;;;;;5013750;28;20041;-75
2020/12/07 08:59:38;;;;;;;6.43;3.37;;;;;;;;;;5010266;28;20033;-75
2020/12/07 09:02:04;;;;;;;9.23;4.50;;;;;;;;;;5008124;28;20026;-76
2020/12/07 09:04:30;;;;;;;7.97;4.10;;;;;;;;;;5009740;28;20030;-75
2020/12/07 09:06:56;;;;;;;6.50;4.00;;;;;;;;;;5010621;28;20026;-75
2020/12/07 09:09:22;;;;;;;8.37;4.33;;;;;;;;;;5011806;28;20026;-77
2020/12/07 09:11:48;;;;;;;12.33;7.17;;;;;;;;;;5011702;28;20524;-75
2020/12/07 09:14:14;;;;;;;17.33;7.37;;;;;;;;;;5009577;28;20029;-76
2020/12/07 09:16:42;;;;;;;9.40;4.93;;;;;;;;;;5007571;28;20034;-76
2020/12/07 09:19:09;;;;;;;8.93;4.57;;;;;;;;;;5006630;28;20034;-76
2020/12/07 09:21:35;;;;;;;7.67;4.57;;;;;;;;;;5009053;28;20477;-76
2020/12/07 09:24:01;;;;;;;7.03;4.33;;;;;;;;;;5009169;28;20022;-76
2020/12/07 09:26:27;;;;;;;6.80;4.10;;;;;;;;;;5009097;28;20445;-76
2020/12/07 09:28:53;;;;;;;7.60;4.67;;;;;;;;;;5007280;28;20026;-75
2020/12/07 09:31:19;;;;;;;9.83;5.80;;;;;;;;;;5008289;28;20034;-75
2020/12/07 09:33:47;;;;;;;8.30;5.43;;;;;;;;;;5009565;28;20041;-75
2020/12/07 09:36:13;;;;;;;9.03;5.60;;;;;;;;;;5003226;28;20022;-76
2020/12/07 09:38:39;;;;;;;11.87;6.17;;;;;;;;;;5010957;28;20650;-76
2020/12/07 09:41:06;;;;;;;11.13;6.20;;;;;;;;;;5012085;28;20021;-76
2020/12/07 09:43:32;;;;;;;9.50;5.53;;;;;;;;;;5012028;28;20030;-76
2020/12/07 09:45:58;;;;;;;9.27;5.00;;;;;;;;;;5011442;28;20033;-76
2020/12/07 09:48:24;;;;;;;8.93;4.90;;;;;;;;;;5010269;28;20036;-76
2020/12/07 09:50:51;;;;;;;9.63;5.43;;;;;;;;;;5007655;28;20026;-76
2020/12/07 09:53:19;;;;;;;10.80;5.30;;;;;;;;;;4999931;28;20053;-77
2020/12/07 09:55:46;;;;;;;10.33;5.73;;;;;;;;;;5010895;28;20029;-77
2020/12/07 09:58:13;;;;;;;11.40;6.10;;;;;;;;;;5010181;28;20038;-76
2020/12/07 10:00:39;;;;;;;10.53;6.10;;;;;;;;;;5000481;28;20034;-76
2020/12/07 10:03:05;;;;;;;10.53;6.17;;;;;;;;;;5010671;28;20026;-77
2020/12/07 10:05:31;;;;;;;10.80;6.07;;;;;;;;;;5012702;28;20053;-77
2020/12/07 10:07:57;;;;;;;9.93;5.97;;;;;;;;;;5010487;28;20042;-77
2020/12/07 10:10:23;;;;;;;8.67;5.37;;;;;;;;;;4999665;28;20026;-76
2020/12/07 10:12:49;;;;;;;12.07;6.57;;;;;;;;;;5010413;28;20473;-76
2020/12/07 10:15:16;;;;;;;11.93;6.13;;;;;;;;;;5009881;28;20030;-77
2020/12/07 10:17:42;;;;;;;10.57;6.03;;;;;;;;;;5010838;28;20856;-77
2020/12/07 10:20:08;;;;;;;8.77;5.47;;;;;;;;;;5009824;28;20018;-77
2020/12/07 10:22:34;;;;;;;7.83;4.63;;;;;;;;;;5012915;28;20037;-77
2020/12/07 10:25:00;;;;;;;7.47;3.93;;;;;;;;;;5011962;28;20022;-78
2020/12/07 10:27:26;;;;;;;6.57;3.33;;;;;;;;;;5011675;28;20022;-77
2020/12/07 10:29:52;;;;;;;9.83;3.70;;;;;;;;;;5009787;28;20065;-76
2020/12/07 10:32:18;;;;;;;6.23;3.50;;;;;;;;;;5012890;28;20034;-77
2020/12/07 10:34:44;;;;;;;5.87;2.90;;;;;;;;;;5010226;28;20445;-77
2020/12/07 10:37:11;;;;;;;5.17;2.87;;;;;;;;;;5008829;28;20048;-77
2020/12/07 10:39:38;;;;;;;5.50;3.30;;;;;;;;;;5024250;28;20038;-77
2020/12/07 10:42:04;;;;;;;7.27;3.20;;;;;;;;;;5004232;28;20029;-78
2020/12/07 10:44:30;;;;;;;5.33;3.20;;;;;;;;;;5008406;28;20098;-78
2020/12/07 10:46:56;;;;;;;5.93;3.53;;;;;;;;;;5005801;28;20037;-77
2020/12/07 10:49:22;;;;;;;5.33;3.07;;;;;;;;;;5009758;28;20030;-77
2020/12/07 10:51:48;;;;;;;4.93;2.87;;;;;;;;;;5010462;28;20030;-78
2020/12/07 10:54:14;;;;;;;6.00;3.43;;;;;;;;;;5001629;28;20033;-78
2020/12/07 10:56:44;;;;;;;5.83;3.40;;;;;;;;;;5007250;28;20048;-77
2020/12/07 10:59:11;;;;;;;7.57;4.27;;;;;;;;;;5005674;28;20041;-77
2020/12/07 11:01:37;;;;;;;6.45;3.03;;;;;;;;;;5001441;28;20918;-77
2020/12/07 11:04:03;;;;;;;7.20;4.05;;;;;;;;;;5013518;28;20512;-77
2020/12/07 11:06:32;;;;;;;7.93;4.57;;;;;;;;;;5010247;28;20026;-76
2020/12/07 11:09:03;;;;;;;6.15;3.28;;;;;;;;;;5006068;28;20037;-76
2020/12/07 11:11:29;;;;;;;4.72;3.25;;;;;;;;;;5007148;28;20037;-76
2020/12/07 11:13:55;;;;;;;5.60;3.42;;;;;;;;;;5005978;28;20061;-76
2020/12/07 11:16:25;;;;;;;6.70;3.50;;;;;;;;;;5009260;28;20040;-77
2020/12/07 11:18:52;;;;;;;5.88;4.07;;;;;;;;;;5008210;28;20026;-77
2020/12/07 11:21:18;;;;;;;4.55;3.15;;;;;;;;;;5009510;28;20037;-77
2020/12/07 11:23:46;;;;;;;4.72;3.30;;;;;;;;;;5020433;28;20392;-76
2020/12/07 11:26:13;;;;;;;5.65;3.90;;;;;;;;;;5004611;28;20032;-75
2020/12/07 11:28:39;;;;;;;6.53;4.43;;;;;;;;;;5005886;28;20489;-77
2020/12/07 11:31:09;;;;;;;6.93;4.88;;;;;;;;;;5001038;28;20129;-76
2020/12/07 11:33:35;;;;;;;6.57;4.65;;;;;;;;;;5023595;28;20033;-76
2020/12/07 11:36:02;;;;;;;8.13;5.57;;;;;;;;;;5029646;28;20485;-76
2020/12/07 11:38:33;;;;;;;7.85;5.00;;;;;;;;;;5012952;28;20109;-76
2020/12/07 11:41:27;;;;;;;8.38;5.47;;;;;;;;;;5011594;28;20030;-76
2020/12/07 11:44:15;;;;;;;7.15;4.80;;;;;;;;;;5014673;28;20109;-77
2020/12/07 11:46:47;;;;;;;7.70;5.65;;;;;;;;;;5005579;28;20030;-77
2020/12/07 11:49:13;;;;;;;7.75;6.03;;;;;;;;;;5009850;28;20037;-77
2020/12/07 11:51:41;;;;;;;9.02;6.13;;;;;;;;;;5007475;28;20026;-76
2020/12/07 11:54:08;;;;;;;9.10;6.18;;;;;;;;;;5002316;28;20501;-76
2020/12/07 11:56:35;;;;;;;8.07;5.45;;;;;;;;;;5004226;28;20030;-75
2020/12/07 11:59:01;;;;;;;8.38;6.18;;;;;;;;;;5008827;28;20527;-76
2020/12/07 12:01:31;;;;;;;10.00;6.70;;;;;;;;;;5008272;28;20258;-75
2020/12/07 12:03:57;;;;;;;13.97;7.03;;;;;;;;;;5007036;28;20022;-75
2020/12/07 12:06:27;;;;;;;8.17;5.67;;;;;;;;;;5001893;28;20026;-76
2020/12/07 12:08:53;;;;;;;8.50;6.20;;;;;;;;;;5010129;28;20026;-76
2020/12/07 12:11:20;;;;;;;7.57;4.72;;;;;;;;;;5008533;28;20034;-76
2020/12/07 12:13:46;;;;;;;6.53;4.50;;;;;;;;;;5008546;28;20026;-77
2020/12/07 12:16:13;;;;;;;6.80;5.20;;;;;;;;;;5008006;28;20489;-77
2020/12/07 12:18:40;;;;;;;6.72;4.57;;;;;;;;;;5009701;28;20026;-77
2020/12/07 12:21:06;;;;;;;8.93;6.13;;;;;;;;;;5006303;28;20053;-76
2020/12/07 12:23:32;;;;;;;8.02;5.75;;;;;;;;;;5008232;28;20084;-76
2020/12/07 12:25:58;;;;;;;8.05;6.00;;;;;;;;;;5009181;28;20026;-76
2020/12/07 12:28:25;;;;;;;6.38;4.72;;;;;;;;;;5002583;28;20504;-77
2020/12/07 12:30:51;;;;;;;10.55;5.88;;;;;;;;;;5007108;28;20026;-76
2020/12/07 12:33:18;;;;;;;9.68;5.20;;;;;;;;;;5006301;28;20030;-75
2020/12/07 12:35:44;;;;;;;6.97;4.85;;;;;;;;;;5008356;28;20408;-76
2020/12/07 12:38:11;;;;;;;7.50;5.00;;;;;;;;;;5006447;28;20034;-74
2020/12/07 12:40:37;;;;;;;7.97;5.00;;;;;;;;;;5004876;28;20030;-76
2020/12/07 12:43:03;;;;;;;7.20;4.73;;;;;;;;;;5004904;28;20030;-76
2020/12/07 12:45:29;;;;;;;12.75;9.50;;;;;;;;;;5011210;28;20057;-78
2020/12/07 12:47:55;;;;;;;7.35;4.35;;;;;;;;;;5008159;28;20483;-75
2020/12/07 12:50:21;;;;;;;6.38;4.18;;;;;;;;;;4999929;28;20030;-76
2020/12/07 12:52:47;;;;;;;6.47;4.25;;;;;;;;;;5002394;28;20033;-77
2020/12/07 12:55:13;;;;;;;5.63;3.67;;;;;;;;;;5004482;28;20033;-76
2020/12/07 12:57:40;;;;;;;7.65;4.47;;;;;;;;;;5006284;28;20034;-76
2020/12/07 13:00:06;;;;;;;6.03;4.53;;;;;;;;;;5008460;28;20120;-76
2020/12/07 13:02:32;;;;;;;6.80;4.90;;;;;;;;;;5008725;28;20028;-75
2020/12/07 13:04:58;;;;;;;6.57;4.37;;;;;;;;;;5006015;28;20057;-76
2020/12/07 13:07:24;;;;;;;7.23;5.00;;;;;;;;;;5007700;28;20022;-76
2020/12/07 13:09:50;;;;;;;7.00;4.90;;;;;;;;;;5007258;28;20033;-76
2020/12/07 13:12:16;;;;;;;7.07;4.97;;;;;;;;;;5008133;28;20088;-75
2020/12/07 13:14:42;;;;;;;6.37;4.10;;;;;;;;;;5007829;28;20025;-75
2020/12/07 13:17:18;;;;;;;7.00;5.00;;;;;;;;;;5007301;28;20104;-76
2020/12/07 13:19:45;;;;;;;6.70;4.97;;;;;;;;;;5007206;28;20033;-76
2020/12/07 13:24:56;;;;;;;9.55;5.45;;;;;;;;;;5001067;28;20117;-76
2020/12/07 13:29:54;;;;;;;8.07;4.00;;;;;;;;;;5007764;28;20030;-75
2020/12/07 13:32:20;;;;;;;7.13;4.53;;;;;;;;;;5000242;28;20045;-76
2020/12/07 13:34:46;;;;;;;10.77;6.57;;;;;;;;;;5022151;28;20045;-76
2020/12/07 13:37:12;;;;;;;11.33;7.53;;;;;;;;;;5011321;28;20501;-75
2020/12/07 13:39:40;;;;;;;11.60;8.47;;;;;;;;;;5002326;28;20033;-75
2020/12/07 13:42:07;;;;;;;11.57;6.33;;;;;;;;;;4998606;28;20038;-74
2020/12/07 13:44:33;;;;;;;11.50;6.97;;;;;;;;;;4998618;28;20026;-75
2020/12/07 13:46:59;;;;;;;12.00;7.53;;;;;;;;;;4996574;28;20034;-74
2020/12/07 13:49:26;;;;;;;11.30;7.57;;;;;;;;;;5006442;28;20033;-74
2020/12/07 13:51:52;;;;;;;14.30;7.77;;;;;;;;;;5007492;28;20768;-74
2020/12/07 13:54:18;;;;;;;10.80;7.30;;;;;;;;;;5002350;28;20125;-75
2020/12/07 13:56:44;;;;;;;12.60;7.90;;;;;;;;;;5005331;28;20026;-75
2020/12/07 13:59:11;;;;;;;13.97;8.70;;;;;;;;;;5005613;28;20045;-74
2020/12/07 14:01:37;;;;;;;14.27;9.10;;;;;;;;;;5007709;28;20038;-75
2020/12/07 14:04:14;;;;;;;13.57;8.40;;;;;;;;;;5006590;28;21132;-75
2020/12/07 14:06:40;;;;;;;13.03;8.20;;;;;;;;;;5006208;28;20281;-75
2020/12/07 14:09:08;;;;;;;14.10;8.60;;;;;;;;;;5008301;28;20261;-76
2020/12/07 14:11:34;;;;;;;11.40;7.33;;;;;;;;;;5008148;28;20643;-74
2020/12/07 14:14:01;;;;;;;13.50;8.03;;;;;;;;;;5003401;28;20839;-74
2020/12/07 14:16:33;;;;;;;13.10;7.80;;;;;;;;;;5000393;28;20285;-74
2020/12/07 14:19:06;;;;;;;11.20;7.53;;;;;;;;;;5007533;28;20683;-75
2020/12/07 14:27:06;;;;;;;14.80;8.47;;;;;;;;;;4998079;28;20030;-74
2020/12/07 14:38:49;;;;;;;14.20;8.30;;;;;;;;;;5008824;28;20275;-76
2020/12/07 14:40:52;;;;;;;15.30;8.10;;;;;;;;;;4979506;28;20352;-73
2020/12/07 14:43:18;;;;;;;27.90;13.70;;;;;;;;;;5006837;28;20276;-74
2020/12/07 14:46:07;;;;;;;24.23;14.33;;;;;;;;;;5008875;28;20265;-74
2020/12/07 14:48:35;;;;;;;28.57;16.27;;;;;;;;;;5005919;28;20304;-74
2020/12/07 14:51:13;;;;;;;17.47;9.97;;;;;;;;;;5007069;28;20268;-74
2020/12/07 14:53:39;;;;;;;16.37;10.40;;;;;;;;;;5004282;28;20356;-73
2020/12/07 15:01:46;;;;;;;15.47;10.13;;;;;;;;;;5007242;28;20756;-73
2020/12/07 15:07:06;;;;;;;16.53;10.17;;;;;;;;;;5005175;28;20037;-75
2020/12/07 15:12:33;;;;;;;16.23;10.07;;;;;;;;;;5006814;28;20311;-75
2020/12/07 15:15:00;;;;;;;16.63;10.80;;;;;;;;;;5006576;28;20265;-75
2020/12/07 15:17:27;;;;;;;15.37;11.07;;;;;;;;;;5006202;28;20265;-75
2020/12/07 15:19:53;;;;;;;18.90;12.60;;;;;;;;;;5006889;28;20311;-74
2020/12/07 15:22:19;;;;;;;15.70;10.07;;;;;;;;;;5000068;28;20631;-75
2020/12/07 15:24:45;;;;;;;15.73;10.03;;;;;;;;;;5007046;28;20673;-75
2020/12/07 15:27:14;;;;;;;16.33;10.97;;;;;;;;;;5005399;28;20264;-76
2020/12/07 15:29:40;;;;;;;17.23;11.83;;;;;;;;;;5004851;28;20360;-75
2020/12/07 15:32:07;;;;;;;16.97;11.87;;;;;;;;;;5005792;28;20396;-76